sensor_id;sensor_type;location;lat;lon;timestamp;P1;durP1;ratioP1;P2;durP2;ratioP2
177;SDS011;77;48.792;9.032;2022-07-05T00:01:43;5.83;;;4.13;;
177;SDS011;77;48.792;9.032;2022-07-05T00:04:08;5.87;;;4.27;;
177;SDS011;77;48.792;9.032;2022-07-05T00:06:34;5.90;;;4.33;;
177;SDS011;77;48.792;9.032;2022-07-05T00:08:59;7.90;;;4.43;;
177;SDS011;77;48.792;9.032;2022-07-05T00:11:24;5.43;;;4.37;;
177;SDS011;77;48.792;9.032;2022-07-05T00:13:49;5.40;;;4.40;;
177;SDS011;77;48.792;9.032;2022-07-05T00:16:16;7.73;;;4.80;;
177;SDS011;77;48.792;9.032;2022-07-05T00:18:41;6.10;;;4.70;;
177;SDS011;77;48.792;9.032;2022-07-05T00:21:06;5.07;;;4.37;;
177;SDS011;77;48.792;9.032;2022-07-05T00:23:31;8.10;;;4.37;;
177;SDS011;77;48.792;9.032;2022-07-05T00:25:56;6.17;;;4.17;;
177;SDS011;77;48.792;9.032;2022-07-05T00:28:22;5.07;;;4.47;;
177;SDS011;77;48.792;9.032;2022-07-05T00:30:47;9.37;;;4.63;;
177;SDS011;77;48.792;9.032;2022-07-05T00:33:13;7.13;;;4.43;;
177;SDS011;77;48.792;9.032;2022-07-05T00:35:39;6.07;;;4.33;;
177;SDS011;77;48.792;9.032;2022-07-05T00:38:04;6.93;;;4.20;;
177;SDS011;77;48.792;9.032;2022-07-05T00:40:29;7.00;;;4.10;;
177;SDS011;77;48.792;9.032;2022-07-05T00:42:54;5.03;;;4.10;;
177;SDS011;77;48.792;9.032;2022-07-05T00:45:19;4.70;;;3.73;;
177;SDS011;77;48.792;9.032;2022-07-05T00:47:44;7.83;;;3.80;;
177;SDS011;77;48.792;9.032;2022-07-05T00:50:11;4.97;;;3.80;;
177;SDS011;77;48.792;9.032;2022-07-05T00:52:36;7.40;;;4.07;;
177;SDS011;77;48.792;9.032;2022-07-05T00:55:01;4.97;;;3.70;;
177;SDS011;77;48.792;9.032;2022-07-05T00:57:26;6.00;;;3.90;;
177;SDS011;77;48.792;9.032;2022-07-05T00:59:52;5.17;;;3.70;;
177;SDS011;77;48.792;9.032;2022-07-05T01:02:17;4.97;;;3.73;;
177;SDS011;77;48.792;9.032;2022-07-05T01:04:42;5.97;;;4.30;;
177;SDS011;77;48.792;9.032;2022-07-05T01:07:09;4.93;;;3.80;;
177;SDS011;77;48.792;9.032;2022-07-05T01:09:34;4.87;;;3.83;;
177;SDS011;77;48.792;9.032;2022-07-05T01:11:59;7.10;;;4.10;;
177;SDS011;77;48.792;9.032;2022-07-05T01:14:24;6.77;;;3.93;;
177;SDS011;77;48.792;9.032;2022-07-05T01:16:50;5.10;;;4.00;;
177;SDS011;77;48.792;9.032;2022-07-05T01:19:15;7.97;;;4.40;;
177;SDS011;77;48.792;9.032;2022-07-05T01:21:42;4.77;;;3.87;;
177;SDS011;77;48.792;9.032;2022-07-05T01:24:09;4.67;;;3.83;;
177;SDS011;77;48.792;9.032;2022-07-05T01:26:34;6.93;;;3.90;;
177;SDS011;77;48.792;9.032;2022-07-05T01:28:59;7.57;;;4.10;;
177;SDS011;77;48.792;9.032;2022-07-05T01:31:25;5.00;;;4.20;;
177;SDS011;77;48.792;9.032;2022-07-05T01:33:50;4.40;;;4.07;;
177;SDS011;77;48.792;9.032;2022-07-05T01:36:15;5.10;;;4.30;;
177;SDS011;77;48.792;9.032;2022-07-05T01:38:40;5.93;;;3.97;;
177;SDS011;77;48.792;9.032;2022-07-05T01:41:07;9.40;;;4.00;;
177;SDS011;77;48.792;9.032;2022-07-05T01:43:32;5.70;;;4.20;;
177;SDS011;77;48.792;9.032;2022-07-05T01:45:58;7.03;;;3.87;;
177;SDS011;77;48.792;9.032;2022-07-05T01:48:26;6.30;;;4.33;;
177;SDS011;77;48.792;9.032;2022-07-05T01:50:53;5.07;;;3.93;;
177;SDS011;77;48.792;9.032;2022-07-05T01:53:20;4.67;;;3.70;;
177;SDS011;77;48.792;9.032;2022-07-05T01:55:45;4.80;;;4.10;;
177;SDS011;77;48.792;9.032;2022-07-05T01:58:12;5.17;;;4.20;;
177;SDS011;77;48.792;9.032;2022-07-05T02:00:41;5.87;;;4.27;;
177;SDS011;77;48.792;9.032;2022-07-05T02:03:06;4.40;;;3.90;;
177;SDS011;77;48.792;9.032;2022-07-05T02:05:31;8.23;;;4.40;;
177;SDS011;77;48.792;9.032;2022-07-05T02:07:56;4.07;;;3.90;;
177;SDS011;77;48.792;9.032;2022-07-05T02:10:22;5.37;;;4.00;;
177;SDS011;77;48.792;9.032;2022-07-05T02:12:47;5.43;;;4.00;;
177;SDS011;77;48.792;9.032;2022-07-05T02:15:13;5.33;;;3.90;;
177;SDS011;77;48.792;9.032;2022-07-05T02:17:38;4.43;;;3.80;;
177;SDS011;77;48.792;9.032;2022-07-05T02:20:04;4.40;;;4.10;;
177;SDS011;77;48.792;9.032;2022-07-05T02:22:30;5.20;;;4.17;;
177;SDS011;77;48.792;9.032;2022-07-05T02:24:56;5.63;;;4.20;;
177;SDS011;77;48.792;9.032;2022-07-05T02:27:21;5.80;;;3.80;;
177;SDS011;77;48.792;9.032;2022-07-05T02:29:47;12.20;;;4.20;;
177;SDS011;77;48.792;9.032;2022-07-05T02:32:13;5.80;;;4.50;;
177;SDS011;77;48.792;9.032;2022-07-05T02:34:39;4.83;;;4.17;;
177;SDS011;77;48.792;9.032;2022-07-05T02:37:04;13.43;;;4.30;;
177;SDS011;77;48.792;9.032;2022-07-05T02:39:29;5.30;;;4.37;;
177;SDS011;77;48.792;9.032;2022-07-05T02:41:54;5.23;;;4.33;;
177;SDS011;77;48.792;9.032;2022-07-05T02:44:19;5.07;;;4.17;;
177;SDS011;77;48.792;9.032;2022-07-05T02:46:44;5.90;;;4.00;;
177;SDS011;77;48.792;9.032;2022-07-05T02:49:11;5.80;;;4.00;;
177;SDS011;77;48.792;9.032;2022-07-05T02:51:36;5.50;;;4.20;;
177;SDS011;77;48.792;9.032;2022-07-05T02:54:01;6.53;;;4.37;;
177;SDS011;77;48.792;9.032;2022-07-05T02:56:26;5.50;;;4.10;;
177;SDS011;77;48.792;9.032;2022-07-05T02:58:52;4.70;;;4.20;;
177;SDS011;77;48.792;9.032;2022-07-05T03:01:17;6.50;;;4.30;;
177;SDS011;77;48.792;9.032;2022-07-05T03:03:42;8.73;;;4.40;;
177;SDS011;77;48.792;9.032;2022-07-05T03:06:08;7.53;;;4.17;;
177;SDS011;77;48.792;9.032;2022-07-05T03:08:34;11.10;;;4.03;;
177;SDS011;77;48.792;9.032;2022-07-05T03:10:59;5.93;;;4.30;;
177;SDS011;77;48.792;9.032;2022-07-05T03:13:24;7.87;;;4.33;;
177;SDS011;77;48.792;9.032;2022-07-05T03:15:49;5.07;;;4.00;;
177;SDS011;77;48.792;9.032;2022-07-05T03:18:14;8.50;;;4.47;;
177;SDS011;77;48.792;9.032;2022-07-05T03:20:39;5.57;;;4.53;;
177;SDS011;77;48.792;9.032;2022-07-05T03:23:06;5.40;;;4.07;;
177;SDS011;77;48.792;9.032;2022-07-05T03:25:31;7.67;;;4.07;;
177;SDS011;77;48.792;9.032;2022-07-05T03:27:56;6.20;;;4.40;;
177;SDS011;77;48.792;9.032;2022-07-05T03:30:21;5.57;;;4.00;;
177;SDS011;77;48.792;9.032;2022-07-05T03:32:47;4.90;;;3.97;;
177;SDS011;77;48.792;9.032;2022-07-05T03:35:12;5.50;;;4.20;;
177;SDS011;77;48.792;9.032;2022-07-05T03:37:37;7.30;;;4.33;;
177;SDS011;77;48.792;9.032;2022-07-05T03:40:04;8.67;;;4.30;;
177;SDS011;77;48.792;9.032;2022-07-05T03:42:30;7.43;;;4.37;;
177;SDS011;77;48.792;9.032;2022-07-05T03:44:55;5.03;;;3.93;;
177;SDS011;77;48.792;9.032;2022-07-05T03:47:20;5.97;;;4.40;;
177;SDS011;77;48.792;9.032;2022-07-05T03:49:45;5.73;;;4.27;;
177;SDS011;77;48.792;9.032;2022-07-05T03:52:10;6.00;;;4.20;;
177;SDS011;77;48.792;9.032;2022-07-05T03:54:35;4.67;;;3.87;;
177;SDS011;77;48.792;9.032;2022-07-05T03:57:02;5.60;;;4.13;;
177;SDS011;77;48.792;9.032;2022-07-05T03:59:27;6.63;;;4.20;;
177;SDS011;77;48.792;9.032;2022-07-05T04:01:53;8.00;;;4.27;;
177;SDS011;77;48.792;9.032;2022-07-05T04:04:18;6.37;;;4.03;;
177;SDS011;77;48.792;9.032;2022-07-05T04:06:43;5.43;;;4.07;;
177;SDS011;77;48.792;9.032;2022-07-05T04:09:08;7.70;;;4.10;;
177;SDS011;77;48.792;9.032;2022-07-05T04:11:33;5.20;;;4.20;;
177;SDS011;77;48.792;9.032;2022-07-05T04:14:00;7.23;;;4.00;;
177;SDS011;77;48.792;9.032;2022-07-05T04:16:25;6.13;;;4.60;;
177;SDS011;77;48.792;9.032;2022-07-05T04:18:50;5.93;;;4.37;;
177;SDS011;77;48.792;9.032;2022-07-05T04:21:15;5.47;;;4.17;;
177;SDS011;77;48.792;9.032;2022-07-05T04:23:40;6.23;;;4.13;;
177;SDS011;77;48.792;9.032;2022-07-05T04:26:06;7.60;;;4.40;;
177;SDS011;77;48.792;9.032;2022-07-05T04:28:31;5.53;;;4.63;;
177;SDS011;77;48.792;9.032;2022-07-05T04:30:58;4.83;;;4.30;;
177;SDS011;77;48.792;9.032;2022-07-05T04:33:23;8.20;;;4.60;;
177;SDS011;77;48.792;9.032;2022-07-05T04:35:49;5.40;;;4.10;;
177;SDS011;77;48.792;9.032;2022-07-05T04:38:14;5.87;;;4.07;;
177;SDS011;77;48.792;9.032;2022-07-05T04:40:39;4.90;;;3.97;;
177;SDS011;77;48.792;9.032;2022-07-05T04:43:04;6.50;;;4.20;;
177;SDS011;77;48.792;9.032;2022-07-05T04:45:29;4.90;;;3.87;;
177;SDS011;77;48.792;9.032;2022-07-05T04:47:56;6.70;;;4.00;;
177;SDS011;77;48.792;9.032;2022-07-05T04:50:21;6.53;;;4.40;;
177;SDS011;77;48.792;9.032;2022-07-05T04:52:46;6.70;;;4.60;;
177;SDS011;77;48.792;9.032;2022-07-05T04:55:11;5.20;;;4.10;;
177;SDS011;77;48.792;9.032;2022-07-05T04:57:37;6.37;;;4.37;;
177;SDS011;77;48.792;9.032;2022-07-05T05:00:02;7.30;;;4.37;;
177;SDS011;77;48.792;9.032;2022-07-05T05:02:28;6.67;;;4.60;;
177;SDS011;77;48.792;9.032;2022-07-05T05:04:54;9.70;;;4.13;;
177;SDS011;77;48.792;9.032;2022-07-05T05:07:19;7.53;;;4.20;;
177;SDS011;77;48.792;9.032;2022-07-05T05:09:44;6.23;;;4.60;;
177;SDS011;77;48.792;9.032;2022-07-05T05:12:10;6.50;;;4.70;;
177;SDS011;77;48.792;9.032;2022-07-05T05:14:35;6.50;;;3.80;;
177;SDS011;77;48.792;9.032;2022-07-05T05:17:00;11.70;;;4.20;;
177;SDS011;77;48.792;9.032;2022-07-05T05:19:25;5.17;;;4.13;;
177;SDS011;77;48.792;9.032;2022-07-05T05:21:52;9.50;;;4.00;;
177;SDS011;77;48.792;9.032;2022-07-05T05:24:17;5.10;;;4.10;;
177;SDS011;77;48.792;9.032;2022-07-05T05:26:42;8.07;;;4.33;;
177;SDS011;77;48.792;9.032;2022-07-05T05:29:07;5.03;;;3.90;;
177;SDS011;77;48.792;9.032;2022-07-05T05:31:32;5.40;;;4.10;;
177;SDS011;77;48.792;9.032;2022-07-05T05:33:57;4.70;;;4.07;;
177;SDS011;77;48.792;9.032;2022-07-05T05:36:23;5.80;;;3.80;;
177;SDS011;77;48.792;9.032;2022-07-05T05:38:49;6.40;;;4.00;;
177;SDS011;77;48.792;9.032;2022-07-05T05:41:14;6.07;;;4.10;;
177;SDS011;77;48.792;9.032;2022-07-05T05:43:39;6.07;;;4.03;;
177;SDS011;77;48.792;9.032;2022-07-05T05:46:05;6.03;;;4.10;;
177;SDS011;77;48.792;9.032;2022-07-05T05:48:30;7.13;;;4.10;;
177;SDS011;77;48.792;9.032;2022-07-05T05:50:55;5.80;;;4.27;;
177;SDS011;77;48.792;9.032;2022-07-05T05:53:20;7.60;;;4.10;;
177;SDS011;77;48.792;9.032;2022-07-05T05:55:46;4.80;;;3.93;;
177;SDS011;77;48.792;9.032;2022-07-05T05:58:12;5.80;;;4.07;;
177;SDS011;77;48.792;9.032;2022-07-05T06:00:38;6.50;;;4.30;;
177;SDS011;77;48.792;9.032;2022-07-05T06:03:03;5.83;;;4.00;;
177;SDS011;77;48.792;9.032;2022-07-05T06:05:28;7.47;;;4.17;;
177;SDS011;77;48.792;9.032;2022-07-05T06:07:54;6.47;;;4.30;;
177;SDS011;77;48.792;9.032;2022-07-05T06:10:21;8.47;;;4.47;;
177;SDS011;77;48.792;9.032;2022-07-05T06:12:48;8.13;;;4.23;;
177;SDS011;77;48.792;9.032;2022-07-05T06:15:13;6.30;;;4.20;;
177;SDS011;77;48.792;9.032;2022-07-05T06:17:39;7.20;;;4.37;;
177;SDS011;77;48.792;9.032;2022-07-05T06:20:05;5.20;;;4.17;;
177;SDS011;77;48.792;9.032;2022-07-05T06:22:30;5.87;;;4.20;;
177;SDS011;77;48.792;9.032;2022-07-05T06:24:55;5.80;;;3.83;;
177;SDS011;77;48.792;9.032;2022-07-05T06:27:21;5.63;;;4.03;;
177;SDS011;77;48.792;9.032;2022-07-05T06:29:47;6.27;;;4.20;;
177;SDS011;77;48.792;9.032;2022-07-05T06:32:12;5.63;;;4.00;;
177;SDS011;77;48.792;9.032;2022-07-05T06:34:37;5.23;;;4.03;;
177;SDS011;77;48.792;9.032;2022-07-05T06:37:03;6.03;;;3.83;;
177;SDS011;77;48.792;9.032;2022-07-05T06:39:28;4.93;;;3.80;;
177;SDS011;77;48.792;9.032;2022-07-05T06:41:53;6.00;;;3.77;;
177;SDS011;77;48.792;9.032;2022-07-05T06:44:18;5.80;;;3.80;;
177;SDS011;77;48.792;9.032;2022-07-05T06:46:45;4.87;;;3.37;;
177;SDS011;77;48.792;9.032;2022-07-05T06:49:10;6.77;;;3.80;;
177;SDS011;77;48.792;9.032;2022-07-05T06:51:35;5.40;;;3.00;;
177;SDS011;77;48.792;9.032;2022-07-05T06:54:01;4.80;;;3.40;;
177;SDS011;77;48.792;9.032;2022-07-05T06:56:26;5.33;;;2.90;;
177;SDS011;77;48.792;9.032;2022-07-05T06:58:52;6.47;;;2.70;;
177;SDS011;77;48.792;9.032;2022-07-05T07:01:17;5.00;;;2.70;;
177;SDS011;77;48.792;9.032;2022-07-05T07:03:43;7.15;;;3.00;;
177;SDS011;77;48.792;9.032;2022-07-05T07:06:08;3.90;;;3.00;;
177;SDS011;77;48.792;9.032;2022-07-05T07:08:33;6.07;;;3.40;;
177;SDS011;77;48.792;9.032;2022-07-05T07:10:59;3.77;;;3.00;;
177;SDS011;77;48.792;9.032;2022-07-05T07:13:24;5.37;;;3.07;;
177;SDS011;77;48.792;9.032;2022-07-05T07:15:49;3.73;;;2.70;;
177;SDS011;77;48.792;9.032;2022-07-05T07:18:14;8.07;;;2.87;;
177;SDS011;77;48.792;9.032;2022-07-05T07:20:41;3.50;;;2.67;;
177;SDS011;77;48.792;9.032;2022-07-05T07:23:06;3.40;;;2.60;;
177;SDS011;77;48.792;9.032;2022-07-05T07:25:31;5.07;;;2.80;;
177;SDS011;77;48.792;9.032;2022-07-05T07:27:56;3.70;;;2.70;;
177;SDS011;77;48.792;9.032;2022-07-05T07:30:23;5.67;;;2.60;;
177;SDS011;77;48.792;9.032;2022-07-05T07:32:48;4.63;;;2.80;;
177;SDS011;77;48.792;9.032;2022-07-05T07:35:13;3.40;;;2.50;;
177;SDS011;77;48.792;9.032;2022-07-05T07:37:40;4.07;;;2.60;;
177;SDS011;77;48.792;9.032;2022-07-05T07:40:06;5.00;;;2.67;;
177;SDS011;77;48.792;9.032;2022-07-05T07:42:31;3.30;;;2.50;;
177;SDS011;77;48.792;9.032;2022-07-05T07:44:56;7.23;;;2.80;;
177;SDS011;77;48.792;9.032;2022-07-05T07:47:21;4.93;;;2.30;;
177;SDS011;77;48.792;9.032;2022-07-05T07:49:47;7.83;;;2.60;;
177;SDS011;77;48.792;9.032;2022-07-05T07:52:12;5.17;;;2.70;;
177;SDS011;77;48.792;9.032;2022-07-05T07:54:38;7.73;;;2.80;;
177;SDS011;77;48.792;9.032;2022-07-05T07:57:04;4.70;;;2.77;;
177;SDS011;77;48.792;9.032;2022-07-05T07:59:29;3.90;;;2.50;;
177;SDS011;77;48.792;9.032;2022-07-05T08:01:54;7.60;;;2.97;;
177;SDS011;77;48.792;9.032;2022-07-05T08:04:19;8.20;;;2.83;;
177;SDS011;77;48.792;9.032;2022-07-05T08:06:45;8.10;;;2.90;;
177;SDS011;77;48.792;9.032;2022-07-05T08:09:10;6.63;;;3.10;;
177;SDS011;77;48.792;9.032;2022-07-05T08:11:36;5.17;;;2.70;;
177;SDS011;77;48.792;9.032;2022-07-05T08:14:02;5.87;;;2.80;;
177;SDS011;77;48.792;9.032;2022-07-05T08:16:27;3.77;;;2.60;;
177;SDS011;77;48.792;9.032;2022-07-05T08:18:52;6.30;;;2.90;;
177;SDS011;77;48.792;9.032;2022-07-05T08:21:17;5.93;;;2.70;;
177;SDS011;77;48.792;9.032;2022-07-05T08:23:42;4.47;;;2.87;;
177;SDS011;77;48.792;9.032;2022-07-05T08:26:08;4.20;;;2.90;;
177;SDS011;77;48.792;9.032;2022-07-05T08:28:34;6.60;;;2.80;;
177;SDS011;77;48.792;9.032;2022-07-05T08:30:59;5.63;;;2.70;;
177;SDS011;77;48.792;9.032;2022-07-05T08:33:24;4.83;;;2.73;;
177;SDS011;77;48.792;9.032;2022-07-05T08:35:50;4.20;;;2.60;;
177;SDS011;77;48.792;9.032;2022-07-05T08:38:15;4.00;;;2.70;;
177;SDS011;77;48.792;9.032;2022-07-05T08:40:42;5.33;;;2.60;;
177;SDS011;77;48.792;9.032;2022-07-05T08:43:08;9.40;;;2.83;;
177;SDS011;77;48.792;9.032;2022-07-05T08:45:36;9.37;;;2.87;;
177;SDS011;77;48.792;9.032;2022-07-05T08:48:02;4.63;;;2.73;;
177;SDS011;77;48.792;9.032;2022-07-05T08:50:28;5.90;;;2.80;;
177;SDS011;77;48.792;9.032;2022-07-05T08:52:54;4.80;;;2.70;;
177;SDS011;77;48.792;9.032;2022-07-05T08:55:20;3.53;;;2.20;;
177;SDS011;77;48.792;9.032;2022-07-05T08:57:46;4.53;;;2.23;;
177;SDS011;77;48.792;9.032;2022-07-05T09:00:12;4.87;;;2.70;;
177;SDS011;77;48.792;9.032;2022-07-05T09:02:38;4.07;;;2.60;;
177;SDS011;77;48.792;9.032;2022-07-05T09:05:04;8.30;;;2.57;;
177;SDS011;77;48.792;9.032;2022-07-05T09:07:30;5.37;;;2.70;;
177;SDS011;77;48.792;9.032;2022-07-05T09:09:57;5.57;;;2.70;;
177;SDS011;77;48.792;9.032;2022-07-05T09:12:24;5.00;;;2.70;;
177;SDS011;77;48.792;9.032;2022-07-05T09:14:50;8.90;;;2.97;;
177;SDS011;77;48.792;9.032;2022-07-05T09:17:15;3.90;;;2.33;;
177;SDS011;77;48.792;9.032;2022-07-05T09:19:41;3.77;;;2.30;;
177;SDS011;77;48.792;9.032;2022-07-05T09:22:07;6.53;;;2.43;;
177;SDS011;77;48.792;9.032;2022-07-05T09:24:32;4.90;;;2.50;;
177;SDS011;77;48.792;9.032;2022-07-05T09:27:07;5.47;;;2.70;;
177;SDS011;77;48.792;9.032;2022-07-05T09:29:32;7.57;;;2.50;;
177;SDS011;77;48.792;9.032;2022-07-05T09:31:57;4.47;;;2.30;;
177;SDS011;77;48.792;9.032;2022-07-05T09:34:22;4.57;;;2.50;;
177;SDS011;77;48.792;9.032;2022-07-05T09:36:49;2.80;;;2.20;;
177;SDS011;77;48.792;9.032;2022-07-05T09:39:15;4.53;;;2.37;;
177;SDS011;77;48.792;9.032;2022-07-05T09:41:40;3.50;;;2.30;;
177;SDS011;77;48.792;9.032;2022-07-05T09:44:05;9.83;;;2.37;;
177;SDS011;77;48.792;9.032;2022-07-05T09:46:31;3.47;;;2.33;;
177;SDS011;77;48.792;9.032;2022-07-05T09:48:56;3.80;;;2.30;;
177;SDS011;77;48.792;9.032;2022-07-05T09:51:21;3.40;;;2.20;;
177;SDS011;77;48.792;9.032;2022-07-05T09:53:48;3.43;;;2.37;;
177;SDS011;77;48.792;9.032;2022-07-05T09:56:14;3.13;;;2.10;;
177;SDS011;77;48.792;9.032;2022-07-05T09:58:39;3.37;;;2.40;;
177;SDS011;77;48.792;9.032;2022-07-05T10:01:06;7.23;;;2.60;;
177;SDS011;77;48.792;9.032;2022-07-05T10:03:50;4.63;;;2.53;;
177;SDS011;77;48.792;9.032;2022-07-05T10:06:16;2.80;;;2.30;;
177;SDS011;77;48.792;9.032;2022-07-05T10:08:41;9.33;;;2.37;;
177;SDS011;77;48.792;9.032;2022-07-05T10:11:08;8.63;;;2.57;;
177;SDS011;77;48.792;9.032;2022-07-05T10:13:33;6.63;;;2.40;;
177;SDS011;77;48.792;9.032;2022-07-05T10:15:58;3.17;;;2.17;;
177;SDS011;77;48.792;9.032;2022-07-05T10:18:24;3.20;;;2.13;;
177;SDS011;77;48.792;9.032;2022-07-05T10:20:50;3.70;;;2.30;;
177;SDS011;77;48.792;9.032;2022-07-05T10:23:16;4.83;;;2.30;;
177;SDS011;77;48.792;9.032;2022-07-05T10:25:42;4.87;;;2.20;;
177;SDS011;77;48.792;9.032;2022-07-05T10:28:09;5.33;;;2.33;;
177;SDS011;77;48.792;9.032;2022-07-05T10:30:34;3.43;;;2.60;;
177;SDS011;77;48.792;9.032;2022-07-05T10:33:00;16.00;;;2.40;;
177;SDS011;77;48.792;9.032;2022-07-05T10:35:26;2.80;;;2.27;;
177;SDS011;77;48.792;9.032;2022-07-05T10:37:52;3.20;;;2.37;;
177;SDS011;77;48.792;9.032;2022-07-05T10:40:17;5.73;;;2.30;;
177;SDS011;77;48.792;9.032;2022-07-05T10:42:43;2.50;;;2.10;;
177;SDS011;77;48.792;9.032;2022-07-05T10:45:27;3.20;;;2.50;;
177;SDS011;77;48.792;9.032;2022-07-05T10:50:42;3.77;;;2.33;;
177;SDS011;77;48.792;9.032;2022-07-05T10:53:07;2.87;;;2.00;;
177;SDS011;77;48.792;9.032;2022-07-05T10:55:32;8.00;;;2.47;;
177;SDS011;77;48.792;9.032;2022-07-05T10:58:21;3.43;;;2.37;;
177;SDS011;77;48.792;9.032;2022-07-05T11:00:48;4.03;;;2.30;;
177;SDS011;77;48.792;9.032;2022-07-05T11:03:31;7.60;;;2.50;;
177;SDS011;77;48.792;9.032;2022-07-05T11:05:56;4.30;;;2.20;;
177;SDS011;77;48.792;9.032;2022-07-05T11:08:22;3.30;;;2.53;;
177;SDS011;77;48.792;9.032;2022-07-05T11:13:37;5.40;;;2.30;;
177;SDS011;77;48.792;9.032;2022-07-05T11:16:22;5.70;;;2.30;;
177;SDS011;77;48.792;9.032;2022-07-05T11:18:47;5.30;;;2.60;;
177;SDS011;77;48.792;9.032;2022-07-05T11:21:16;3.97;;;2.53;;
177;SDS011;77;48.792;9.032;2022-07-05T11:23:41;5.80;;;2.53;;
177;SDS011;77;48.792;9.032;2022-07-05T11:26:07;5.00;;;2.40;;
177;SDS011;77;48.792;9.032;2022-07-05T11:28:41;4.83;;;2.73;;
177;SDS011;77;48.792;9.032;2022-07-05T11:31:06;3.57;;;2.30;;
177;SDS011;77;48.792;9.032;2022-07-05T11:33:34;5.50;;;2.40;;
177;SDS011;77;48.792;9.032;2022-07-05T11:35:59;4.80;;;2.20;;
177;SDS011;77;48.792;9.032;2022-07-05T11:38:25;4.83;;;2.30;;
177;SDS011;77;48.792;9.032;2022-07-05T11:40:50;3.93;;;2.60;;
177;SDS011;77;48.792;9.032;2022-07-05T11:43:23;3.50;;;2.50;;
177;SDS011;77;48.792;9.032;2022-07-05T11:45:54;4.73;;;2.50;;
177;SDS011;77;48.792;9.032;2022-07-05T11:48:20;3.80;;;2.30;;
177;SDS011;77;48.792;9.032;2022-07-05T11:50:47;5.40;;;2.60;;
177;SDS011;77;48.792;9.032;2022-07-05T11:53:12;5.60;;;2.43;;
177;SDS011;77;48.792;9.032;2022-07-05T11:55:53;4.67;;;2.67;;
177;SDS011;77;48.792;9.032;2022-07-05T11:58:18;6.53;;;2.67;;
177;SDS011;77;48.792;9.032;2022-07-05T12:00:44;2.80;;;2.20;;
177;SDS011;77;48.792;9.032;2022-07-05T12:03:10;3.30;;;2.47;;
177;SDS011;77;48.792;9.032;2022-07-05T12:05:36;3.57;;;2.43;;
177;SDS011;77;48.792;9.032;2022-07-05T12:08:02;3.53;;;2.57;;
177;SDS011;77;48.792;9.032;2022-07-05T12:10:27;4.70;;;2.53;;
177;SDS011;77;48.792;9.032;2022-07-05T12:12:53;4.70;;;2.53;;
177;SDS011;77;48.792;9.032;2022-07-05T12:15:19;4.10;;;2.50;;
177;SDS011;77;48.792;9.032;2022-07-05T12:17:45;4.07;;;2.43;;
177;SDS011;77;48.792;9.032;2022-07-05T12:20:10;3.67;;;2.60;;
177;SDS011;77;48.792;9.032;2022-07-05T12:22:36;5.40;;;2.60;;
177;SDS011;77;48.792;9.032;2022-07-05T12:25:04;4.50;;;2.70;;
177;SDS011;77;48.792;9.032;2022-07-05T12:27:30;5.90;;;2.40;;
177;SDS011;77;48.792;9.032;2022-07-05T12:29:56;4.53;;;2.60;;
177;SDS011;77;48.792;9.032;2022-07-05T12:32:21;2.80;;;2.30;;
177;SDS011;77;48.792;9.032;2022-07-05T12:34:46;2.93;;;2.40;;
177;SDS011;77;48.792;9.032;2022-07-05T12:37:18;5.50;;;2.33;;
177;SDS011;77;48.792;9.032;2022-07-05T12:39:44;8.40;;;2.97;;
177;SDS011;77;48.792;9.032;2022-07-05T12:42:10;5.17;;;2.50;;
177;SDS011;77;48.792;9.032;2022-07-05T12:44:35;3.80;;;2.50;;
177;SDS011;77;48.792;9.032;2022-07-05T12:47:04;5.03;;;2.50;;
177;SDS011;77;48.792;9.032;2022-07-05T12:49:29;3.70;;;2.47;;
177;SDS011;77;48.792;9.032;2022-07-05T12:51:54;6.47;;;2.20;;
177;SDS011;77;48.792;9.032;2022-07-05T12:54:27;3.97;;;2.70;;
177;SDS011;77;48.792;9.032;2022-07-05T12:56:53;5.80;;;2.40;;
177;SDS011;77;48.792;9.032;2022-07-05T12:59:20;3.30;;;2.40;;
177;SDS011;77;48.792;9.032;2022-07-05T13:01:45;4.33;;;2.33;;
177;SDS011;77;48.792;9.032;2022-07-05T13:04:11;4.43;;;2.70;;
177;SDS011;77;48.792;9.032;2022-07-05T13:06:40;4.80;;;2.70;;
177;SDS011;77;48.792;9.032;2022-07-05T13:09:05;5.63;;;2.60;;
177;SDS011;77;48.792;9.032;2022-07-05T13:11:30;3.50;;;2.50;;
177;SDS011;77;48.792;9.032;2022-07-05T13:13:55;3.77;;;2.37;;
177;SDS011;77;48.792;9.032;2022-07-05T13:16:22;5.00;;;2.70;;
177;SDS011;77;48.792;9.032;2022-07-05T13:18:47;7.00;;;3.00;;
177;SDS011;77;48.792;9.032;2022-07-05T13:21:12;7.47;;;2.63;;
177;SDS011;77;48.792;9.032;2022-07-05T13:23:37;5.20;;;2.50;;
177;SDS011;77;48.792;9.032;2022-07-05T13:26:03;5.20;;;2.60;;
177;SDS011;77;48.792;9.032;2022-07-05T13:28:28;3.33;;;2.40;;
177;SDS011;77;48.792;9.032;2022-07-05T13:30:53;5.57;;;2.63;;
177;SDS011;77;48.792;9.032;2022-07-05T13:33:19;4.40;;;2.53;;
177;SDS011;77;48.792;9.032;2022-07-05T13:35:44;6.77;;;2.50;;
177;SDS011;77;48.792;9.032;2022-07-05T13:38:10;4.87;;;2.40;;
177;SDS011;77;48.792;9.032;2022-07-05T13:40:35;6.27;;;2.87;;
177;SDS011;77;48.792;9.032;2022-07-05T13:43:00;4.90;;;2.37;;
177;SDS011;77;48.792;9.032;2022-07-05T13:45:25;4.57;;;2.73;;
177;SDS011;77;48.792;9.032;2022-07-05T13:47:50;3.93;;;2.40;;
177;SDS011;77;48.792;9.032;2022-07-05T13:50:17;3.70;;;2.70;;
177;SDS011;77;48.792;9.032;2022-07-05T13:52:42;3.43;;;2.70;;
177;SDS011;77;48.792;9.032;2022-07-05T13:55:07;5.40;;;2.77;;
177;SDS011;77;48.792;9.032;2022-07-05T13:57:32;5.90;;;2.80;;
177;SDS011;77;48.792;9.032;2022-07-05T13:59:57;3.80;;;2.67;;
177;SDS011;77;48.792;9.032;2022-07-05T14:02:23;5.43;;;2.87;;
177;SDS011;77;48.792;9.032;2022-07-05T14:04:48;5.93;;;2.50;;
177;SDS011;77;48.792;9.032;2022-07-05T14:07:14;4.20;;;2.57;;
177;SDS011;77;48.792;9.032;2022-07-05T14:09:39;2.90;;;2.50;;
177;SDS011;77;48.792;9.032;2022-07-05T14:12:05;4.90;;;2.50;;
177;SDS011;77;48.792;9.032;2022-07-05T14:14:30;3.87;;;2.60;;
177;SDS011;77;48.792;9.032;2022-07-05T14:16:55;6.07;;;2.47;;
177;SDS011;77;48.792;9.032;2022-07-05T14:19:21;4.30;;;2.53;;
177;SDS011;77;48.792;9.032;2022-07-05T14:21:46;4.50;;;2.70;;
177;SDS011;77;48.792;9.032;2022-07-05T14:24:12;3.17;;;2.47;;
177;SDS011;77;48.792;9.032;2022-07-05T14:26:37;6.17;;;2.57;;
177;SDS011;77;48.792;9.032;2022-07-05T14:29:03;3.53;;;2.50;;
177;SDS011;77;48.792;9.032;2022-07-05T14:31:28;8.97;;;3.30;;
177;SDS011;77;48.792;9.032;2022-07-05T14:33:53;3.20;;;2.60;;
177;SDS011;77;48.792;9.032;2022-07-05T14:36:18;4.60;;;2.50;;
177;SDS011;77;48.792;9.032;2022-07-05T14:38:43;4.70;;;2.33;;
177;SDS011;77;48.792;9.032;2022-07-05T14:41:10;3.83;;;2.57;;
177;SDS011;77;48.792;9.032;2022-07-05T14:43:35;4.13;;;2.60;;
177;SDS011;77;48.792;9.032;2022-07-05T14:46:00;3.43;;;2.50;;
177;SDS011;77;48.792;9.032;2022-07-05T14:48:25;3.13;;;2.60;;
177;SDS011;77;48.792;9.032;2022-07-05T14:50:50;5.60;;;2.80;;
177;SDS011;77;48.792;9.032;2022-07-05T14:53:15;3.70;;;2.73;;
177;SDS011;77;48.792;9.032;2022-07-05T14:55:41;3.47;;;2.57;;
177;SDS011;77;48.792;9.032;2022-07-05T14:58:07;5.47;;;2.50;;
177;SDS011;77;48.792;9.032;2022-07-05T15:00:32;3.30;;;2.50;;
177;SDS011;77;48.792;9.032;2022-07-05T15:02:57;3.70;;;2.50;;
177;SDS011;77;48.792;9.032;2022-07-05T15:05:23;3.37;;;2.37;;
177;SDS011;77;48.792;9.032;2022-07-05T15:07:48;4.43;;;2.40;;
177;SDS011;77;48.792;9.032;2022-07-05T15:10:13;4.33;;;2.70;;
177;SDS011;77;48.792;9.032;2022-07-05T15:12:38;3.83;;;2.40;;
177;SDS011;77;48.792;9.032;2022-07-05T15:15:05;3.17;;;2.60;;
177;SDS011;77;48.792;9.032;2022-07-05T15:17:31;4.40;;;2.50;;
177;SDS011;77;48.792;9.032;2022-07-05T15:19:56;3.00;;;2.30;;
177;SDS011;77;48.792;9.032;2022-07-05T15:22:21;4.07;;;2.57;;
177;SDS011;77;48.792;9.032;2022-07-05T15:24:46;6.23;;;2.60;;
177;SDS011;77;48.792;9.032;2022-07-05T15:27:11;3.87;;;2.40;;
177;SDS011;77;48.792;9.032;2022-07-05T15:29:37;4.23;;;2.43;;
177;SDS011;77;48.792;9.032;2022-07-05T15:32:04;5.43;;;2.30;;
177;SDS011;77;48.792;9.032;2022-07-05T15:34:29;2.90;;;2.53;;
177;SDS011;77;48.792;9.032;2022-07-05T15:36:54;5.20;;;2.40;;
177;SDS011;77;48.792;9.032;2022-07-05T15:39:19;6.97;;;2.60;;
177;SDS011;77;48.792;9.032;2022-07-05T15:41:44;6.00;;;3.00;;
177;SDS011;77;48.792;9.032;2022-07-05T15:44:10;5.80;;;2.70;;
177;SDS011;77;48.792;9.032;2022-07-05T15:46:35;4.27;;;2.57;;
177;SDS011;77;48.792;9.032;2022-07-05T15:49:01;3.50;;;2.57;;
177;SDS011;77;48.792;9.032;2022-07-05T15:51:26;4.50;;;2.87;;
177;SDS011;77;48.792;9.032;2022-07-05T15:53:51;3.73;;;2.50;;
177;SDS011;77;48.792;9.032;2022-07-05T15:56:17;4.77;;;2.70;;
177;SDS011;77;48.792;9.032;2022-07-05T15:58:42;6.40;;;2.83;;